createdAt,value
2023-03-07T00:01:27.461Z,77.77
2023-03-07T00:03:55.203Z,77.52
2023-03-07T00:06:22.021Z,77.32
2023-03-07T00:08:54.001Z,76.82
2023-03-07T00:11:20.852Z,76.75
2023-03-07T00:13:47.605Z,76.71
2023-03-07T00:16:18.956Z,76.52
2023-03-07T00:18:46.062Z,76.67
2023-03-07T00:21:17.382Z,76.84
2023-03-07T00:23:45.682Z,77.21
2023-03-07T00:26:16.393Z,77.59
2023-03-07T00:28:43.782Z,78.13
2023-03-07T00:31:11.794Z,77.91
2023-03-07T00:33:39.610Z,77.72
2023-03-07T00:36:24.508Z,77.19
2023-03-07T00:38:52.124Z,77.01
2023-03-07T00:41:22.793Z,76.95
2023-03-07T00:43:49.984Z,77.35
2023-03-07T00:46:19.343Z,77.42
2023-03-07T00:48:46.777Z,77.08
2023-03-07T00:51:16.544Z,77.02
2023-03-07T00:53:44.024Z,77.01
2023-03-07T00:56:25.232Z,76.46
2023-03-07T00:58:52.849Z,76.87
2023-03-07T01:01:23.550Z,76.78
2023-03-07T01:03:53.752Z,77.26
2023-03-07T01:06:25.011Z,76.61
2023-03-07T01:08:51.811Z,76.55
2023-03-07T01:11:18.664Z,76.03
2023-03-07T01:13:45.756Z,75.36
2023-03-07T01:16:18.643Z,75.62
2023-03-07T01:18:46.128Z,75.04
2023-03-07T01:21:19.727Z,74.89
2023-03-07T01:23:47.018Z,74.87
2023-03-07T01:26:20.122Z,74.91
2023-03-07T01:28:47.542Z,74.83
2023-03-07T01:31:14.566Z,74.50
2023-03-07T01:33:41.695Z,74.18
2023-03-07T01:36:28.409Z,74.12
2023-03-07T01:38:58.348Z,74.03
2023-03-07T01:41:25.312Z,75.21
2023-03-07T01:43:52.096Z,75.35
2023-03-07T01:46:18.793Z,75.56
2023-03-07T01:49:03.907Z,75.57
2023-03-07T01:51:33.232Z,75.94
2023-03-07T01:54:01.896Z,74.89
2023-03-07T01:56:29.416Z,74.84
2023-03-07T01:58:56.565Z,74.86
2023-03-07T02:01:26.381Z,74.89
2023-03-07T02:04:06.532Z,75.74
2023-03-07T02:06:37.818Z,75.52
2023-03-07T02:09:13.395Z,76.13
2023-03-07T02:11:44.685Z,75.88
2023-03-07T02:14:11.441Z,76.08
2023-03-07T02:16:38.934Z,76.74
2023-03-07T02:19:33.432Z,75.97
2023-03-07T02:22:17.514Z,76.18
2023-03-07T02:24:57.196Z,75.26
2023-03-07T02:27:26.082Z,75.38
2023-03-07T02:29:53.313Z,75.71
2023-03-07T02:32:20.567Z,75.11
2023-03-07T02:34:47.325Z,75.20
2023-03-07T02:37:21.938Z,75.23
2023-03-07T02:39:48.997Z,75.73
2023-03-07T02:42:22.601Z,76.31
2023-03-07T02:45:00.449Z,76.82
2023-03-07T02:47:28.138Z,76.00
2023-03-07T02:49:55.162Z,76.22
2023-03-07T02:52:23.047Z,76.32
2023-03-07T02:54:49.814Z,76.77
2023-03-07T02:57:16.599Z,77.69
2023-03-07T02:59:43.379Z,78.19
2023-03-07T03:02:10.129Z,76.96
2023-03-07T03:04:36.900Z,75.74
2023-03-07T03:07:03.802Z,75.79
2023-03-07T03:09:31.588Z,75.21
2023-03-07T03:11:58.482Z,75.23
2023-03-07T03:14:25.605Z,76.33
2023-03-07T03:16:53.712Z,76.14
2023-03-07T03:19:21.043Z,76.29
2023-03-07T03:21:48.784Z,76.18
2023-03-07T03:24:15.707Z,76.08
2023-03-07T03:26:42.528Z,75.52
2023-03-07T03:29:09.883Z,76.22
2023-03-07T03:31:36.774Z,76.42
2023-03-07T03:34:05.731Z,76.41
2023-03-07T03:36:33.142Z,76.72
2023-03-07T03:39:00.505Z,77.21
2023-03-07T03:41:27.662Z,77.52
2023-03-07T03:43:54.518Z,77.02
2023-03-07T03:46:21.402Z,77.32
2023-03-07T03:48:53.473Z,77.55
2023-03-07T03:51:20.853Z,77.17
2023-03-07T03:53:47.676Z,77.28
2023-03-07T03:56:19.068Z,77.01
2023-03-07T03:58:55.392Z,76.91
2023-03-07T04:01:24.862Z,76.81
2023-03-07T04:03:53.311Z,76.65
2023-03-07T04:06:29.372Z,77.17
2023-03-07T04:08:57.244Z,78.20
2023-03-07T04:11:25.226Z,78.10
2023-03-07T04:13:53.213Z,78.22
2023-03-07T04:16:22.485Z,78.60
2023-03-07T04:18:51.112Z,78.55
2023-03-07T04:21:19.094Z,79.71
2023-03-07T04:23:45.823Z,79.90
2023-03-07T04:26:12.731Z,80.31
2023-03-07T04:28:45.291Z,80.53
2023-03-07T04:31:15.065Z,80.78
2023-03-07T04:33:42.427Z,80.83
2023-03-07T04:36:10.504Z,80.70
2023-03-07T04:38:39.183Z,79.92
2023-03-07T04:41:07.347Z,79.40
2023-03-07T04:43:34.708Z,79.42
2023-03-07T04:46:01.838Z,79.48
2023-03-07T04:48:28.710Z,79.41
2023-03-07T04:50:55.470Z,79.74
2023-03-07T04:53:22.562Z,80.05
2023-03-07T04:55:49.341Z,79.98
2023-03-07T04:58:16.494Z,80.19
2023-03-07T05:00:45.306Z,80.00
2023-03-07T05:03:13.717Z,80.21
2023-03-07T05:05:40.671Z,80.63
2023-03-07T05:08:08.089Z,80.50
2023-03-07T05:10:35.506Z,80.35
2023-03-07T05:13:02.330Z,80.48
2023-03-07T05:15:29.248Z,80.70
2023-03-07T05:17:56.381Z,80.30
2023-03-07T05:20:23.639Z,80.33
2023-03-07T05:22:50.797Z,79.65
2023-03-07T05:25:17.850Z,79.29
2023-03-07T05:27:44.732Z,78.86
2023-03-07T05:30:12.767Z,78.58
2023-03-07T05:32:40.322Z,78.34
2023-03-07T05:35:09.608Z,78.82
2023-03-07T05:37:36.549Z,78.89
2023-03-07T05:40:09.212Z,78.65
2023-03-07T05:42:35.947Z,78.63
2023-03-07T05:45:05.941Z,78.65
2023-03-07T05:47:33.008Z,78.76
2023-03-07T05:49:59.729Z,78.74
2023-03-07T05:52:27.551Z,78.71
2023-03-07T05:54:54.380Z,79.03
2023-03-07T05:57:22.897Z,78.81
2023-03-07T05:59:49.692Z,79.31
2023-03-07T06:02:16.510Z,79.66
2023-03-07T06:04:44.296Z,79.54
2023-03-07T06:07:10.999Z,79.39
2023-03-07T06:09:37.746Z,79.32
2023-03-07T06:12:05.000Z,79.27
2023-03-07T06:14:32.967Z,79.98
2023-03-07T06:16:59.697Z,79.86
2023-03-07T06:19:26.592Z,79.54
2023-03-07T06:21:53.316Z,79.55
2023-03-07T06:24:20.053Z,79.92
2023-03-07T06:26:46.843Z,80.89
2023-03-07T06:29:13.806Z,80.87
2023-03-07T06:31:40.685Z,81.16
2023-03-07T06:34:08.637Z,81.57
2023-03-07T06:36:35.473Z,81.47
2023-03-07T06:39:02.272Z,81.31
2023-03-07T06:41:29.048Z,81.77
2023-03-07T06:43:55.923Z,81.28
2023-03-07T06:46:22.675Z,80.90
2023-03-07T06:48:52.100Z,81.19
2023-03-07T06:51:18.950Z,81.32
2023-03-07T06:53:45.795Z,81.84
2023-03-07T06:56:12.567Z,81.57
2023-03-07T06:58:39.338Z,81.59
2023-03-07T07:01:06.094Z,81.57
2023-03-07T07:03:32.865Z,82.19
2023-03-07T07:05:59.628Z,82.17
2023-03-07T07:08:26.386Z,82.39
2023-03-07T07:10:53.157Z,82.24
2023-03-07T07:13:19.892Z,81.73
2023-03-07T07:15:46.628Z,81.33
2023-03-07T07:18:14.164Z,80.55
2023-03-07T07:20:41.034Z,80.36
2023-03-07T07:23:07.803Z,79.86
2023-03-07T07:25:34.593Z,79.78
2023-03-07T07:28:01.350Z,79.79
2023-03-07T07:30:28.109Z,79.26
2023-03-07T07:32:55.011Z,79.05
2023-03-07T07:35:22.402Z,78.80
2023-03-07T07:37:49.161Z,78.53
2023-03-07T07:40:16.137Z,78.17
2023-03-07T07:42:43.530Z,78.15
2023-03-07T07:45:11.292Z,77.61
2023-03-07T07:47:38.100Z,77.80
2023-03-07T07:50:05.661Z,77.47
2023-03-07T07:52:32.366Z,76.95
2023-03-07T07:54:59.124Z,76.87
2023-03-07T07:57:25.874Z,76.57
2023-03-07T07:59:52.641Z,76.39
2023-03-07T08:02:19.401Z,75.44
2023-03-07T08:04:47.432Z,75.38
2023-03-07T08:07:14.651Z,75.64
2023-03-07T08:09:41.379Z,74.64
2023-03-07T08:12:12.621Z,74.58
2023-03-07T08:14:40.585Z,74.73
2023-03-07T08:17:07.456Z,74.35
2023-03-07T08:19:34.215Z,74.48
2023-03-07T08:22:02.317Z,74.19
2023-03-07T08:24:39.919Z,72.88
2023-03-07T08:27:07.142Z,73.11
2023-03-07T08:29:35.319Z,73.58
2023-03-07T08:32:02.129Z,73.50
2023-03-07T08:34:28.890Z,73.12
2023-03-07T08:36:55.667Z,73.43
2023-03-07T08:39:22.476Z,71.96
2023-03-07T08:41:49.201Z,72.05
2023-03-07T08:44:16.004Z,71.47
2023-03-07T08:46:42.808Z,72.04
2023-03-07T08:49:09.617Z,72.40
2023-03-07T08:51:36.406Z,72.37
2023-03-07T08:54:03.150Z,72.02
2023-03-07T08:56:29.882Z,71.77
2023-03-07T08:58:56.610Z,70.70
2023-03-07T09:01:23.475Z,71.49
2023-03-07T09:03:50.296Z,71.05
2023-03-07T09:06:20.391Z,70.67
2023-03-07T09:08:48.308Z,70.69
2023-03-07T09:11:15.707Z,70.32
2023-03-07T09:13:51.476Z,70.71
2023-03-07T09:16:19.248Z,69.12
2023-03-07T09:18:46.030Z,69.68
2023-03-07T09:21:12.791Z,69.74
2023-03-07T09:23:39.557Z,69.71
2023-03-07T09:26:06.664Z,69.67
2023-03-07T09:28:33.408Z,69.00
2023-03-07T09:31:00.473Z,68.95
2023-03-07T09:33:27.533Z,68.07
2023-03-07T09:35:54.436Z,67.43
2023-03-07T09:38:21.195Z,67.93
2023-03-07T09:40:48.821Z,67.34
2023-03-07T09:43:23.052Z,67.05
2023-03-07T09:46:20.346Z,66.85
2023-03-07T09:49:18.242Z,65.87
2023-03-07T09:51:49.475Z,64.28
2023-03-07T09:54:26.074Z,62.76
2023-03-07T09:56:59.414Z,62.08
2023-03-07T09:59:39.986Z,61.21
2023-03-07T10:02:32.132Z,61.20
2023-03-07T10:05:22.577Z,61.77
2023-03-07T10:07:49.675Z,61.43
2023-03-07T10:10:52.399Z,60.82
2023-03-07T10:13:26.368Z,59.84
2023-03-07T10:16:12.149Z,58.41
2023-03-07T10:19:34.436Z,58.49
2023-03-07T10:22:43.807Z,58.16
2023-03-07T10:25:31.706Z,56.92
2023-03-07T10:28:33.336Z,56.14
2023-03-07T10:31:24.686Z,56.12
2023-03-07T10:33:54.680Z,55.12
2023-03-07T10:36:41.581Z,54.82
2023-03-07T10:39:43.917Z,53.78
2023-03-07T10:42:16.688Z,53.20
2023-03-07T10:44:46.241Z,52.52
2023-03-07T10:47:30.993Z,53.23
2023-03-07T10:50:27.356Z,52.18
2023-03-07T10:52:58.055Z,53.56
2023-03-07T10:55:43.321Z,52.45
2023-03-07T10:58:27.106Z,49.75
2023-03-07T11:01:15.809Z,51.65
2023-03-07T11:03:58.802Z,49.69
2023-03-07T15:21:23.566Z,40.75
2023-03-07T15:23:59.071Z,40.33
2023-03-07T15:26:27.854Z,39.79
2023-03-07T15:29:05.593Z,40.21
2023-03-07T15:31:54.055Z,39.78
2023-03-07T15:35:16.514Z,39.83
2023-03-07T15:38:08.180Z,40.53
2023-03-07T15:40:36.773Z,40.60
2023-03-07T15:43:04.479Z,40.15
2023-03-07T15:45:40.464Z,40.66
2023-03-07T15:48:24.752Z,40.10
2023-03-07T15:51:00.458Z,40.70
2023-03-07T15:53:32.044Z,41.31
2023-03-07T15:56:20.383Z,41.64
2023-03-07T15:58:48.008Z,41.59
2023-03-07T16:01:26.802Z,42.23
2023-03-07T16:03:57.797Z,42.49
2023-03-07T16:06:44.783Z,42.34
2023-03-07T16:09:17.991Z,41.98
2023-03-07T16:11:46.401Z,42.26
2023-03-07T16:14:30.449Z,43.04
2023-03-07T16:17:01.349Z,43.79
2023-03-07T16:19:28.848Z,43.28
2023-03-07T16:21:55.698Z,43.57
2023-03-07T16:24:22.518Z,43.82
2023-03-07T16:26:49.621Z,44.00
2023-03-07T16:29:21.730Z,44.20
2023-03-07T16:31:49.038Z,43.97
2023-03-07T16:34:21.981Z,44.36
2023-03-07T16:36:48.780Z,44.44
2023-03-07T16:39:18.120Z,44.58
2023-03-07T16:41:47.879Z,45.16
2023-03-07T16:44:20.405Z,46.75
2023-03-07T16:46:59.073Z,47.67
2023-03-07T16:49:25.875Z,48.16
2023-03-07T16:52:05.151Z,48.40
2023-03-07T16:54:33.329Z,47.71
2023-03-07T16:57:02.055Z,47.99
2023-03-07T16:59:35.390Z,47.93
2023-03-07T17:02:03.378Z,48.90
2023-03-07T17:04:30.217Z,49.85
2023-03-07T17:07:04.394Z,50.22
2023-03-07T17:09:31.476Z,49.90
2023-03-07T17:11:58.482Z,50.50
2023-03-07T17:14:25.361Z,51.12
2023-03-07T17:16:52.119Z,50.78
2023-03-07T17:19:28.297Z,51.56
2023-03-07T17:21:56.146Z,51.48
2023-03-07T17:24:22.902Z,52.63
2023-03-07T17:26:50.292Z,52.66
2023-03-07T17:29:34.605Z,52.67
2023-03-07T17:32:01.422Z,51.90
2023-03-07T17:34:32.124Z,51.46
2023-03-07T17:37:00.380Z,51.60
2023-03-07T17:39:29.777Z,51.87
2023-03-07T17:41:58.202Z,51.64
2023-03-07T17:44:25.276Z,52.28
2023-03-07T17:46:53.537Z,52.03
2023-03-07T17:49:21.583Z,53.04
2023-03-07T17:51:48.974Z,53.76
2023-03-07T17:54:17.088Z,54.47
2023-03-07T17:56:43.896Z,54.09
2023-03-07T17:59:10.690Z,54.38
2023-03-07T18:01:38.129Z,54.27
2023-03-07T18:04:06.534Z,52.05
2023-03-07T18:06:34.173Z,52.28
2023-03-07T18:09:01.804Z,53.47
2023-03-07T18:11:28.706Z,52.93
2023-03-07T18:13:55.900Z,52.94
2023-03-07T18:16:22.783Z,53.63
2023-03-07T18:18:58.735Z,53.89
2023-03-07T18:21:26.639Z,53.20
2023-03-07T18:23:53.607Z,53.85
2023-03-07T18:26:21.693Z,54.15
2023-03-07T18:28:50.086Z,54.21
2023-03-07T18:31:21.541Z,53.71
2023-03-07T18:33:51.114Z,53.25
2023-03-07T18:36:18.557Z,53.34
2023-03-07T18:38:45.542Z,53.53
2023-03-07T18:41:16.117Z,53.76
2023-03-07T18:43:43.427Z,53.09
2023-03-07T18:46:14.351Z,52.88
2023-03-07T18:48:41.290Z,52.74
2023-03-07T18:51:11.773Z,53.11
2023-03-07T18:53:39.599Z,53.60
2023-03-07T18:56:11.009Z,54.20
2023-03-07T18:58:38.079Z,53.62
2023-03-07T19:01:28.740Z,54.01
2023-03-07T19:03:57.705Z,52.95
2023-03-07T19:06:31.600Z,52.93
2023-03-07T19:08:58.444Z,53.18
2023-03-07T19:11:25.196Z,53.35
2023-03-07T19:13:51.932Z,53.56
2023-03-07T19:16:23.724Z,53.28
2023-03-07T19:18:51.757Z,53.26
2023-03-07T19:21:25.908Z,54.13
2023-03-07T19:23:54.581Z,53.73
2023-03-07T19:26:23.205Z,54.74
2023-03-07T19:28:53.064Z,54.29
2023-03-07T19:31:25.589Z,54.68
2023-03-07T19:33:53.100Z,54.21
2023-03-07T19:36:27.181Z,53.09
2023-03-07T19:38:57.712Z,53.93
2023-03-07T19:41:27.196Z,54.34
2023-03-07T19:43:56.464Z,53.47
2023-03-07T19:46:23.793Z,53.95
2023-03-07T19:48:50.704Z,54.14
2023-03-07T19:51:20.942Z,54.23
2023-03-07T19:53:47.740Z,54.53
2023-03-07T19:56:27.685Z,53.80
2023-03-07T19:58:55.108Z,53.83
2023-03-07T20:01:23.775Z,54.01
2023-03-07T20:03:51.609Z,54.21
2023-03-07T20:06:26.603Z,55.19
2023-03-07T20:08:55.148Z,54.46
2023-03-07T20:11:27.203Z,53.92
2023-03-07T20:13:56.559Z,54.23
2023-03-07T20:16:27.171Z,54.57
2023-03-07T20:18:54.363Z,54.45
2023-03-07T20:21:26.274Z,54.62
2023-03-07T20:23:55.801Z,54.51
2023-03-07T20:26:32.437Z,54.94
2023-03-07T20:29:00.571Z,54.87
2023-03-07T20:31:28.533Z,54.88
2023-03-07T20:33:58.847Z,54.68
2023-03-07T20:36:32.052Z,54.53
2023-03-07T20:39:02.983Z,54.69
2023-03-07T20:41:32.402Z,54.43
2023-03-07T20:44:05.419Z,54.32
2023-03-07T20:46:33.152Z,54.90
2023-03-07T20:49:01.901Z,54.65
2023-03-07T20:51:32.044Z,54.10
2023-03-07T20:54:05.135Z,54.48
2023-03-07T20:56:34.293Z,54.25
2023-03-07T20:59:01.811Z,54.22
2023-03-07T21:01:33.751Z,53.93
2023-03-07T21:04:08.269Z,54.27
2023-03-07T21:06:40.682Z,54.27
2023-03-07T21:09:10.264Z,54.59
2023-03-07T21:11:40.454Z,54.17
2023-03-07T21:14:08.516Z,54.53
2023-03-07T21:16:35.405Z,54.58
2023-03-07T21:19:07.290Z,54.88
2023-03-07T21:21:35.904Z,54.84
2023-03-07T21:24:03.244Z,55.03
2023-03-07T21:26:34.211Z,55.02
2023-03-07T21:29:01.104Z,55.10
2023-03-07T21:31:31.587Z,54.71
2023-03-07T21:34:02.067Z,54.95
2023-03-07T21:36:31.565Z,55.01
2023-03-07T21:38:59.326Z,54.98
2023-03-07T21:41:26.656Z,55.19
2023-03-07T21:43:55.372Z,55.36
2023-03-07T21:46:23.089Z,55.35
2023-03-07T21:48:50.282Z,55.77
2023-03-07T21:51:17.699Z,55.83
2023-03-07T21:53:44.456Z,55.43
2023-03-07T21:56:19.333Z,55.26
2023-03-07T21:58:50.409Z,55.83
2023-03-07T22:01:22.132Z,55.56
2023-03-07T22:03:53.209Z,56.19
2023-03-07T22:06:20.286Z,56.60
2023-03-07T22:08:47.041Z,55.93
2023-03-07T22:11:14.595Z,56.05
2023-03-07T22:13:42.347Z,56.75
2023-03-07T22:16:15.572Z,56.54
2023-03-07T22:18:42.589Z,56.41
2023-03-07T22:21:14.178Z,56.46
2023-03-07T22:23:42.276Z,56.72
2023-03-07T22:26:11.942Z,56.41
2023-03-07T22:28:40.664Z,56.50
2023-03-07T22:31:12.892Z,56.25
2023-03-07T22:33:40.789Z,56.20
2023-03-07T22:36:10.876Z,56.16
2023-03-07T22:38:37.811Z,56.46
2023-03-07T22:41:08.626Z,56.48
2023-03-07T22:43:36.300Z,56.38
2023-03-07T22:46:04.157Z,56.78
2023-03-07T22:48:31.653Z,56.38
2023-03-07T22:50:58.784Z,56.54
2023-03-07T22:53:31.059Z,56.47
2023-03-07T22:56:01.584Z,56.78
2023-03-07T22:58:29.843Z,56.69
2023-03-07T23:00:56.705Z,56.63
2023-03-07T23:03:23.654Z,56.71
2023-03-07T23:05:50.582Z,56.96
2023-03-07T23:08:17.427Z,56.72
2023-03-07T23:10:44.228Z,56.51
2023-03-07T23:13:10.967Z,56.60
2023-03-07T23:15:41.481Z,56.42
2023-03-07T23:18:09.045Z,56.25
2023-03-07T23:20:39.042Z,56.80
2023-03-07T23:23:06.357Z,56.29
2023-03-07T23:25:33.772Z,56.01
2023-03-07T23:28:00.575Z,56.28
2023-03-07T23:30:27.384Z,56.25
2023-03-07T23:32:55.188Z,55.97
2023-03-07T23:35:21.978Z,56.09
2023-03-07T23:37:48.768Z,56.35
2023-03-07T23:40:15.582Z,56.60
2023-03-07T23:42:42.321Z,56.72
2023-03-07T23:45:09.718Z,56.95
2023-03-07T23:47:36.487Z,56.90
2023-03-07T23:50:03.709Z,56.95
2023-03-07T23:52:30.496Z,57.29
2023-03-07T23:54:57.307Z,57.34
2023-03-07T23:57:24.294Z,57.37
2023-03-07T23:59:51.080Z,57.68
